sensor_id;sensor_type;location;lat;lon;timestamp;P1;durP1;ratioP1;P2;durP2;ratioP2
66402;SDS011;53212;52.112;5.144;2023-08-20T00:00:33;4.90;;;1.90;;
66402;SDS011;53212;52.112;5.144;2023-08-20T00:03:03;8.80;;;2.10;;
66402;SDS011;53212;52.112;5.144;2023-08-20T00:05:35;6.30;;;2.00;;
66402;SDS011;53212;52.112;5.144;2023-08-20T00:08:01;7.00;;;2.20;;
66402;SDS011;53212;52.112;5.144;2023-08-20T00:10:27;5.70;;;1.80;;
66402;SDS011;53212;52.112;5.144;2023-08-20T00:12:53;3.10;;;1.60;;
66402;SDS011;53212;52.112;5.144;2023-08-20T00:15:18;5.50;;;1.70;;
66402;SDS011;53212;52.112;5.144;2023-08-20T00:17:45;3.20;;;1.70;;
66402;SDS011;53212;52.112;5.144;2023-08-20T00:20:13;5.00;;;1.80;;
66402;SDS011;53212;52.112;5.144;2023-08-20T00:22:40;4.50;;;1.90;;
66402;SDS011;53212;52.112;5.144;2023-08-20T00:25:11;6.00;;;2.10;;
66402;SDS011;53212;52.112;5.144;2023-08-20T00:27:41;5.40;;;1.70;;
66402;SDS011;53212;52.112;5.144;2023-08-20T00:30:08;6.20;;;2.40;;
66402;SDS011;53212;52.112;5.144;2023-08-20T00:32:35;6.70;;;2.20;;
66402;SDS011;53212;52.112;5.144;2023-08-20T00:35:01;6.80;;;2.30;;
66402;SDS011;53212;52.112;5.144;2023-08-20T00:37:28;4.60;;;1.70;;
66402;SDS011;53212;52.112;5.144;2023-08-20T00:39:53;4.80;;;2.00;;
66402;SDS011;53212;52.112;5.144;2023-08-20T00:42:19;4.60;;;1.80;;
66402;SDS011;53212;52.112;5.144;2023-08-20T00:44:44;5.70;;;1.80;;
66402;SDS011;53212;52.112;5.144;2023-08-20T00:47:10;7.70;;;2.20;;
66402;SDS011;53212;52.112;5.144;2023-08-20T00:49:36;5.10;;;2.00;;
66402;SDS011;53212;52.112;5.144;2023-08-20T00:52:03;5.70;;;2.20;;
66402;SDS011;53212;52.112;5.144;2023-08-20T00:54:29;6.00;;;2.10;;
66402;SDS011;53212;52.112;5.144;2023-08-20T00:56:57;5.90;;;2.00;;
66402;SDS011;53212;52.112;5.144;2023-08-20T00:59:24;6.80;;;2.10;;
66402;SDS011;53212;52.112;5.144;2023-08-20T01:01:50;3.80;;;1.60;;
66402;SDS011;53212;52.112;5.144;2023-08-20T01:04:16;8.60;;;2.30;;
66402;SDS011;53212;52.112;5.144;2023-08-20T01:06:51;4.80;;;1.90;;
66402;SDS011;53212;52.112;5.144;2023-08-20T01:09:30;5.20;;;2.00;;
66402;SDS011;53212;52.112;5.144;2023-08-20T01:12:05;6.40;;;2.00;;
66402;SDS011;53212;52.112;5.144;2023-08-20T01:14:31;5.00;;;2.20;;
66402;SDS011;53212;52.112;5.144;2023-08-20T01:16:57;5.40;;;1.90;;
66402;SDS011;53212;52.112;5.144;2023-08-20T01:19:22;5.00;;;1.70;;
66402;SDS011;53212;52.112;5.144;2023-08-20T01:30:15;6.30;;;1.90;;
66402;SDS011;53212;52.112;5.144;2023-08-20T01:32:40;7.70;;;2.20;;
66402;SDS011;53212;52.112;5.144;2023-08-20T01:35:11;5.40;;;1.90;;
66402;SDS011;53212;52.112;5.144;2023-08-20T01:37:38;5.30;;;1.90;;
66402;SDS011;53212;52.112;5.144;2023-08-20T01:40:06;6.80;;;2.00;;
66402;SDS011;53212;52.112;5.144;2023-08-20T01:42:33;6.20;;;2.00;;
66402;SDS011;53212;52.112;5.144;2023-08-20T01:44:58;7.50;;;2.20;;
66402;SDS011;53212;52.112;5.144;2023-08-20T01:47:24;5.10;;;1.90;;
66402;SDS011;53212;52.112;5.144;2023-08-20T01:49:49;10.20;;;1.80;;
66402;SDS011;53212;52.112;5.144;2023-08-20T01:52:15;7.80;;;1.90;;
66402;SDS011;53212;52.112;5.144;2023-08-20T01:54:40;7.30;;;2.10;;
66402;SDS011;53212;52.112;5.144;2023-08-20T01:57:06;7.00;;;1.90;;
66402;SDS011;53212;52.112;5.144;2023-08-20T01:59:31;8.60;;;2.10;;
66402;SDS011;53212;52.112;5.144;2023-08-20T02:01:56;5.90;;;2.20;;
66402;SDS011;53212;52.112;5.144;2023-08-20T02:04:22;4.60;;;1.80;;
66402;SDS011;53212;52.112;5.144;2023-08-20T02:06:47;6.40;;;1.80;;
66402;SDS011;53212;52.112;5.144;2023-08-20T02:09:13;8.30;;;2.10;;
66402;SDS011;53212;52.112;5.144;2023-08-20T02:11:39;9.40;;;2.10;;
66402;SDS011;53212;52.112;5.144;2023-08-20T02:14:04;6.50;;;2.10;;
66402;SDS011;53212;52.112;5.144;2023-08-20T02:16:30;5.00;;;1.80;;
66402;SDS011;53212;52.112;5.144;2023-08-20T02:18:55;8.40;;;2.10;;
66402;SDS011;53212;52.112;5.144;2023-08-20T02:21:21;8.40;;;1.90;;
66402;SDS011;53212;52.112;5.144;2023-08-20T02:23:46;7.70;;;2.30;;
66402;SDS011;53212;52.112;5.144;2023-08-20T02:26:12;6.50;;;2.10;;
66402;SDS011;53212;52.112;5.144;2023-08-20T02:28:37;6.70;;;2.20;;
66402;SDS011;53212;52.112;5.144;2023-08-20T02:31:04;5.40;;;1.90;;
66402;SDS011;53212;52.112;5.144;2023-08-20T02:33:30;7.80;;;2.10;;
66402;SDS011;53212;52.112;5.144;2023-08-20T02:35:57;6.10;;;2.30;;
66402;SDS011;53212;52.112;5.144;2023-08-20T02:38:26;6.40;;;2.00;;
66402;SDS011;53212;52.112;5.144;2023-08-20T02:40:52;8.00;;;2.30;;
66402;SDS011;53212;52.112;5.144;2023-08-20T02:43:17;4.90;;;2.20;;
66402;SDS011;53212;52.112;5.144;2023-08-20T02:45:42;6.20;;;2.10;;
66402;SDS011;53212;52.112;5.144;2023-08-20T02:48:08;6.80;;;2.50;;
66402;SDS011;53212;52.112;5.144;2023-08-20T02:50:35;9.20;;;2.80;;
66402;SDS011;53212;52.112;5.144;2023-08-20T02:53:01;6.50;;;2.70;;
66402;SDS011;53212;52.112;5.144;2023-08-20T02:55:26;6.90;;;2.30;;
66402;SDS011;53212;52.112;5.144;2023-08-20T02:57:52;5.10;;;2.40;;
66402;SDS011;53212;52.112;5.144;2023-08-20T03:00:17;6.50;;;2.30;;
66402;SDS011;53212;52.112;5.144;2023-08-20T03:02:43;7.30;;;2.40;;
66402;SDS011;53212;52.112;5.144;2023-08-20T03:05:09;6.10;;;2.30;;
66402;SDS011;53212;52.112;5.144;2023-08-20T03:07:35;6.90;;;2.30;;
66402;SDS011;53212;52.112;5.144;2023-08-20T03:10:01;6.30;;;2.40;;
66402;SDS011;53212;52.112;5.144;2023-08-20T03:12:28;6.40;;;2.20;;
66402;SDS011;53212;52.112;5.144;2023-08-20T03:14:54;4.60;;;2.00;;
66402;SDS011;53212;52.112;5.144;2023-08-20T03:17:20;5.30;;;2.10;;
66402;SDS011;53212;52.112;5.144;2023-08-20T03:19:59;6.50;;;2.50;;
66402;SDS011;53212;52.112;5.144;2023-08-20T03:22:26;7.20;;;2.50;;
66402;SDS011;53212;52.112;5.144;2023-08-20T03:24:53;6.30;;;2.30;;
66402;SDS011;53212;52.112;5.144;2023-08-20T03:27:19;7.10;;;3.10;;
66402;SDS011;53212;52.112;5.144;2023-08-20T03:29:45;4.90;;;2.60;;
66402;SDS011;53212;52.112;5.144;2023-08-20T03:32:11;6.90;;;2.80;;
66402;SDS011;53212;52.112;5.144;2023-08-20T03:34:37;7.80;;;2.70;;
66402;SDS011;53212;52.112;5.144;2023-08-20T03:37:03;6.80;;;2.90;;
66402;SDS011;53212;52.112;5.144;2023-08-20T03:39:30;5.50;;;2.10;;
66402;SDS011;53212;52.112;5.144;2023-08-20T03:41:58;5.50;;;2.40;;
66402;SDS011;53212;52.112;5.144;2023-08-20T03:44:23;6.90;;;2.70;;
66402;SDS011;53212;52.112;5.144;2023-08-20T03:46:49;7.40;;;2.00;;
66402;SDS011;53212;52.112;5.144;2023-08-20T03:49:15;7.60;;;2.20;;
66402;SDS011;53212;52.112;5.144;2023-08-20T03:51:40;8.70;;;2.40;;
66402;SDS011;53212;52.112;5.144;2023-08-20T03:54:07;5.00;;;1.90;;
66402;SDS011;53212;52.112;5.144;2023-08-20T03:56:33;9.00;;;2.10;;
66402;SDS011;53212;52.112;5.144;2023-08-20T03:58:59;10.40;;;2.50;;
66402;SDS011;53212;52.112;5.144;2023-08-20T04:01:24;5.80;;;1.80;;
66402;SDS011;53212;52.112;5.144;2023-08-20T04:03:50;5.20;;;1.80;;
66402;SDS011;53212;52.112;5.144;2023-08-20T04:06:15;5.50;;;1.70;;
66402;SDS011;53212;52.112;5.144;2023-08-20T04:08:41;6.20;;;1.90;;
66402;SDS011;53212;52.112;5.144;2023-08-20T04:11:06;6.10;;;1.90;;
66402;SDS011;53212;52.112;5.144;2023-08-20T04:13:32;6.30;;;1.60;;
66402;SDS011;53212;52.112;5.144;2023-08-20T04:15:58;7.40;;;1.70;;
66402;SDS011;53212;52.112;5.144;2023-08-20T04:18:23;6.20;;;1.60;;
66402;SDS011;53212;52.112;5.144;2023-08-20T04:20:52;9.70;;;2.00;;
66402;SDS011;53212;52.112;5.144;2023-08-20T04:23:22;5.10;;;1.80;;
66402;SDS011;53212;52.112;5.144;2023-08-20T04:25:48;5.10;;;1.60;;
66402;SDS011;53212;52.112;5.144;2023-08-20T04:28:13;5.50;;;2.00;;
66402;SDS011;53212;52.112;5.144;2023-08-20T04:30:39;6.40;;;1.80;;
66402;SDS011;53212;52.112;5.144;2023-08-20T04:33:05;6.30;;;1.70;;
66402;SDS011;53212;52.112;5.144;2023-08-20T04:35:30;5.80;;;1.60;;
66402;SDS011;53212;52.112;5.144;2023-08-20T04:37:56;5.80;;;1.90;;
66402;SDS011;53212;52.112;5.144;2023-08-20T04:40:22;4.80;;;1.80;;
66402;SDS011;53212;52.112;5.144;2023-08-20T04:42:48;6.10;;;2.00;;
66402;SDS011;53212;52.112;5.144;2023-08-20T04:45:14;4.50;;;2.10;;
66402;SDS011;53212;52.112;5.144;2023-08-20T04:47:45;6.90;;;1.90;;
66402;SDS011;53212;52.112;5.144;2023-08-20T04:50:11;6.80;;;2.20;;
66402;SDS011;53212;52.112;5.144;2023-08-20T04:52:36;6.40;;;2.00;;
66402;SDS011;53212;52.112;5.144;2023-08-20T04:55:02;5.30;;;1.80;;
66402;SDS011;53212;52.112;5.144;2023-08-20T04:57:28;6.80;;;1.80;;
66402;SDS011;53212;52.112;5.144;2023-08-20T04:59:53;7.30;;;2.00;;
66402;SDS011;53212;52.112;5.144;2023-08-20T05:02:19;5.40;;;1.80;;
66402;SDS011;53212;52.112;5.144;2023-08-20T05:04:44;6.50;;;1.80;;
66402;SDS011;53212;52.112;5.144;2023-08-20T05:07:10;8.10;;;2.10;;
66402;SDS011;53212;52.112;5.144;2023-08-20T05:09:36;7.00;;;1.80;;
66402;SDS011;53212;52.112;5.144;2023-08-20T05:12:01;7.70;;;2.10;;
66402;SDS011;53212;52.112;5.144;2023-08-20T05:14:28;8.30;;;1.90;;
66402;SDS011;53212;52.112;5.144;2023-08-20T05:16:55;6.30;;;1.90;;
66402;SDS011;53212;52.112;5.144;2023-08-20T05:19:20;7.00;;;2.10;;
66402;SDS011;53212;52.112;5.144;2023-08-20T05:21:46;6.40;;;2.10;;
66402;SDS011;53212;52.112;5.144;2023-08-20T05:24:12;11.80;;;2.50;;
66402;SDS011;53212;52.112;5.144;2023-08-20T05:26:37;5.80;;;1.90;;
66402;SDS011;53212;52.112;5.144;2023-08-20T05:29:03;6.40;;;1.90;;
66402;SDS011;53212;52.112;5.144;2023-08-20T05:31:28;8.30;;;2.00;;
66402;SDS011;53212;52.112;5.144;2023-08-20T05:33:54;7.50;;;1.90;;
66402;SDS011;53212;52.112;5.144;2023-08-20T05:36:19;7.10;;;1.90;;
66402;SDS011;53212;52.112;5.144;2023-08-20T05:38:45;6.10;;;2.00;;
66402;SDS011;53212;52.112;5.144;2023-08-20T05:41:10;8.30;;;2.10;;
66402;SDS011;53212;52.112;5.144;2023-08-20T05:43:35;5.90;;;2.10;;
66402;SDS011;53212;52.112;5.144;2023-08-20T05:46:02;6.10;;;1.80;;
66402;SDS011;53212;52.112;5.144;2023-08-20T05:48:28;7.30;;;2.00;;
66402;SDS011;53212;52.112;5.144;2023-08-20T05:50:54;6.80;;;1.80;;
66402;SDS011;53212;52.112;5.144;2023-08-20T05:53:19;6.20;;;2.00;;
66402;SDS011;53212;52.112;5.144;2023-08-20T05:55:45;6.10;;;1.90;;
66402;SDS011;53212;52.112;5.144;2023-08-20T05:58:11;5.00;;;1.80;;
66402;SDS011;53212;52.112;5.144;2023-08-20T06:00:36;5.60;;;1.90;;
66402;SDS011;53212;52.112;5.144;2023-08-20T06:03:02;5.30;;;2.20;;
66402;SDS011;53212;52.112;5.144;2023-08-20T06:05:27;7.70;;;2.40;;
66402;SDS011;53212;52.112;5.144;2023-08-20T06:07:53;7.10;;;1.90;;
66402;SDS011;53212;52.112;5.144;2023-08-20T06:10:18;6.80;;;1.80;;
66402;SDS011;53212;52.112;5.144;2023-08-20T06:12:44;4.30;;;1.90;;
66402;SDS011;53212;52.112;5.144;2023-08-20T06:15:09;4.60;;;1.80;;
66402;SDS011;53212;52.112;5.144;2023-08-20T06:17:35;5.70;;;1.80;;
66402;SDS011;53212;52.112;5.144;2023-08-20T06:20:00;6.70;;;1.80;;
66402;SDS011;53212;52.112;5.144;2023-08-20T06:22:26;4.40;;;2.10;;
66402;SDS011;53212;52.112;5.144;2023-08-20T06:24:51;8.60;;;2.20;;
66402;SDS011;53212;52.112;5.144;2023-08-20T06:27:17;5.70;;;2.00;;
66402;SDS011;53212;52.112;5.144;2023-08-20T06:29:42;4.50;;;1.90;;
66402;SDS011;53212;52.112;5.144;2023-08-20T06:32:08;7.50;;;2.20;;
66402;SDS011;53212;52.112;5.144;2023-08-20T06:34:34;6.30;;;2.00;;
66402;SDS011;53212;52.112;5.144;2023-08-20T06:37:01;6.30;;;1.90;;
66402;SDS011;53212;52.112;5.144;2023-08-20T06:39:27;7.00;;;1.90;;
66402;SDS011;53212;52.112;5.144;2023-08-20T06:41:52;7.60;;;2.20;;
66402;SDS011;53212;52.112;5.144;2023-08-20T06:44:18;6.40;;;1.80;;
66402;SDS011;53212;52.112;5.144;2023-08-20T06:46:43;7.80;;;2.20;;
66402;SDS011;53212;52.112;5.144;2023-08-20T06:49:09;5.50;;;1.80;;
66402;SDS011;53212;52.112;5.144;2023-08-20T06:51:34;8.20;;;2.30;;
66402;SDS011;53212;52.112;5.144;2023-08-20T06:54:00;8.20;;;2.40;;
66402;SDS011;53212;52.112;5.144;2023-08-20T06:56:25;8.90;;;2.10;;
66402;SDS011;53212;52.112;5.144;2023-08-20T06:58:50;6.50;;;1.90;;
66402;SDS011;53212;52.112;5.144;2023-08-20T07:01:16;7.60;;;1.80;;
66402;SDS011;53212;52.112;5.144;2023-08-20T07:03:43;6.80;;;1.80;;
66402;SDS011;53212;52.112;5.144;2023-08-20T07:06:10;8.30;;;2.50;;
66402;SDS011;53212;52.112;5.144;2023-08-20T07:08:37;6.50;;;1.90;;
66402;SDS011;53212;52.112;5.144;2023-08-20T07:11:04;9.00;;;2.00;;
66402;SDS011;53212;52.112;5.144;2023-08-20T07:13:30;7.10;;;2.30;;
66402;SDS011;53212;52.112;5.144;2023-08-20T07:15:56;7.70;;;1.80;;
66402;SDS011;53212;52.112;5.144;2023-08-20T07:18:21;7.40;;;1.80;;
66402;SDS011;53212;52.112;5.144;2023-08-20T07:20:47;6.30;;;1.70;;
66402;SDS011;53212;52.112;5.144;2023-08-20T07:23:12;8.60;;;2.10;;
66402;SDS011;53212;52.112;5.144;2023-08-20T07:25:38;10.80;;;2.70;;
66402;SDS011;53212;52.112;5.144;2023-08-20T07:28:08;9.30;;;2.30;;
66402;SDS011;53212;52.112;5.144;2023-08-20T07:30:35;8.20;;;2.20;;
66402;SDS011;53212;52.112;5.144;2023-08-20T07:33:01;8.70;;;2.40;;
66402;SDS011;53212;52.112;5.144;2023-08-20T07:35:28;7.40;;;2.10;;
66402;SDS011;53212;52.112;5.144;2023-08-20T07:37:54;6.90;;;2.30;;
66402;SDS011;53212;52.112;5.144;2023-08-20T07:40:20;7.30;;;2.30;;
66402;SDS011;53212;52.112;5.144;2023-08-20T07:42:45;5.90;;;2.00;;
66402;SDS011;53212;52.112;5.144;2023-08-20T07:45:11;8.30;;;2.10;;
66402;SDS011;53212;52.112;5.144;2023-08-20T07:47:37;8.50;;;2.80;;
66402;SDS011;53212;52.112;5.144;2023-08-20T07:50:03;7.80;;;2.80;;
66402;SDS011;53212;52.112;5.144;2023-08-20T07:52:30;9.00;;;2.30;;
66402;SDS011;53212;52.112;5.144;2023-08-20T07:54:57;6.00;;;2.50;;
66402;SDS011;53212;52.112;5.144;2023-08-20T07:57:22;4.90;;;1.80;;
66402;SDS011;53212;52.112;5.144;2023-08-20T07:59:51;7.80;;;2.20;;
66402;SDS011;53212;52.112;5.144;2023-08-20T08:02:18;8.60;;;2.00;;
66402;SDS011;53212;52.112;5.144;2023-08-20T08:04:44;6.70;;;1.80;;
66402;SDS011;53212;52.112;5.144;2023-08-20T08:07:10;6.60;;;2.30;;
66402;SDS011;53212;52.112;5.144;2023-08-20T08:09:36;9.90;;;2.70;;
66402;SDS011;53212;52.112;5.144;2023-08-20T08:12:02;4.50;;;2.00;;
66402;SDS011;53212;52.112;5.144;2023-08-20T08:14:28;5.90;;;2.00;;
66402;SDS011;53212;52.112;5.144;2023-08-20T08:16:54;5.30;;;1.90;;
66402;SDS011;53212;52.112;5.144;2023-08-20T08:19:19;7.60;;;2.00;;
66402;SDS011;53212;52.112;5.144;2023-08-20T08:21:46;6.80;;;2.30;;
66402;SDS011;53212;52.112;5.144;2023-08-20T08:24:12;9.00;;;2.10;;
66402;SDS011;53212;52.112;5.144;2023-08-20T08:26:39;5.10;;;2.20;;
66402;SDS011;53212;52.112;5.144;2023-08-20T08:29:06;6.40;;;1.70;;
66402;SDS011;53212;52.112;5.144;2023-08-20T08:31:32;8.10;;;2.70;;
66402;SDS011;53212;52.112;5.144;2023-08-20T08:33:59;5.20;;;2.40;;
66402;SDS011;53212;52.112;5.144;2023-08-20T08:36:25;7.10;;;2.00;;
66402;SDS011;53212;52.112;5.144;2023-08-20T08:38:53;4.20;;;1.70;;
66402;SDS011;53212;52.112;5.144;2023-08-20T08:41:21;6.20;;;2.10;;
66402;SDS011;53212;52.112;5.144;2023-08-20T08:43:50;7.10;;;2.40;;
66402;SDS011;53212;52.112;5.144;2023-08-20T08:46:16;5.60;;;1.90;;
66402;SDS011;53212;52.112;5.144;2023-08-20T08:48:44;4.80;;;1.70;;
66402;SDS011;53212;52.112;5.144;2023-08-20T08:51:13;5.10;;;1.60;;
66402;SDS011;53212;52.112;5.144;2023-08-20T08:53:39;8.50;;;2.00;;
66402;SDS011;53212;52.112;5.144;2023-08-20T08:56:07;5.60;;;1.80;;
66402;SDS011;53212;52.112;5.144;2023-08-20T08:58:33;3.70;;;1.50;;
66402;SDS011;53212;52.112;5.144;2023-08-20T09:00:59;4.00;;;1.80;;
66402;SDS011;53212;52.112;5.144;2023-08-20T09:03:25;5.90;;;1.60;;
66402;SDS011;53212;52.112;5.144;2023-08-20T09:05:55;5.40;;;1.70;;
66402;SDS011;53212;52.112;5.144;2023-08-20T09:08:28;5.60;;;1.70;;
66402;SDS011;53212;52.112;5.144;2023-08-20T09:10:57;5.80;;;2.00;;
66402;SDS011;53212;52.112;5.144;2023-08-20T09:13:27;3.10;;;1.40;;
66402;SDS011;53212;52.112;5.144;2023-08-20T09:15:59;3.60;;;1.20;;
66402;SDS011;53212;52.112;5.144;2023-08-20T09:18:24;4.60;;;1.50;;
66402;SDS011;53212;52.112;5.144;2023-08-20T09:20:50;3.40;;;1.40;;
66402;SDS011;53212;52.112;5.144;2023-08-20T09:23:16;3.60;;;1.40;;
66402;SDS011;53212;52.112;5.144;2023-08-20T09:25:42;3.40;;;1.30;;
66402;SDS011;53212;52.112;5.144;2023-08-20T09:28:08;2.60;;;1.40;;
66402;SDS011;53212;52.112;5.144;2023-08-20T09:30:34;4.90;;;1.60;;
66402;SDS011;53212;52.112;5.144;2023-08-20T09:33:09;4.60;;;1.70;;
66402;SDS011;53212;52.112;5.144;2023-08-20T09:35:36;4.10;;;1.30;;
66402;SDS011;53212;52.112;5.144;2023-08-20T09:38:03;3.70;;;1.10;;
66402;SDS011;53212;52.112;5.144;2023-08-20T09:40:29;3.10;;;1.20;;
66402;SDS011;53212;52.112;5.144;2023-08-20T09:42:56;3.90;;;1.20;;
66402;SDS011;53212;52.112;5.144;2023-08-20T09:45:24;4.50;;;1.50;;
66402;SDS011;53212;52.112;5.144;2023-08-20T09:47:54;4.90;;;1.60;;
66402;SDS011;53212;52.112;5.144;2023-08-20T09:50:22;3.40;;;1.40;;
66402;SDS011;53212;52.112;5.144;2023-08-20T09:53:00;4.20;;;1.60;;
66402;SDS011;53212;52.112;5.144;2023-08-20T09:55:33;2.00;;;0.90;;
66402;SDS011;53212;52.112;5.144;2023-08-20T09:58:00;4.90;;;1.20;;
66402;SDS011;53212;52.112;5.144;2023-08-20T10:00:27;3.80;;;1.10;;
66402;SDS011;53212;52.112;5.144;2023-08-20T10:02:53;4.50;;;1.20;;
66402;SDS011;53212;52.112;5.144;2023-08-20T10:05:19;4.80;;;1.20;;
66402;SDS011;53212;52.112;5.144;2023-08-20T10:07:46;5.00;;;1.40;;
66402;SDS011;53212;52.112;5.144;2023-08-20T10:10:12;4.40;;;1.50;;
66402;SDS011;53212;52.112;5.144;2023-08-20T10:12:38;4.70;;;1.30;;
66402;SDS011;53212;52.112;5.144;2023-08-20T10:15:07;3.20;;;1.10;;
66402;SDS011;53212;52.112;5.144;2023-08-20T10:17:35;2.80;;;1.00;;
66402;SDS011;53212;52.112;5.144;2023-08-20T10:20:03;4.70;;;1.20;;
66402;SDS011;53212;52.112;5.144;2023-08-20T10:22:37;3.50;;;1.40;;
66402;SDS011;53212;52.112;5.144;2023-08-20T10:25:07;2.80;;;1.30;;
66402;SDS011;53212;52.112;5.144;2023-08-20T10:27:36;3.40;;;1.30;;
66402;SDS011;53212;52.112;5.144;2023-08-20T10:30:09;1.90;;;1.10;;
66402;SDS011;53212;52.112;5.144;2023-08-20T10:32:47;2.90;;;1.10;;
66402;SDS011;53212;52.112;5.144;2023-08-20T10:35:26;2.50;;;1.00;;
66402;SDS011;53212;52.112;5.144;2023-08-20T10:38:28;4.10;;;1.20;;
66402;SDS011;53212;52.112;5.144;2023-08-20T10:41:01;4.20;;;1.50;;
66402;SDS011;53212;52.112;5.144;2023-08-20T10:43:38;3.50;;;1.30;;
66402;SDS011;53212;52.112;5.144;2023-08-20T10:48:45;2.70;;;0.90;;
66402;SDS011;53212;52.112;5.144;2023-08-20T10:51:17;6.00;;;1.30;;
66402;SDS011;53212;52.112;5.144;2023-08-20T10:54:09;5.60;;;1.20;;
66402;SDS011;53212;52.112;5.144;2023-08-20T10:56:39;3.60;;;1.30;;
66402;SDS011;53212;52.112;5.144;2023-08-20T10:59:28;4.40;;;1.20;;
66402;SDS011;53212;52.112;5.144;2023-08-20T11:01:54;3.20;;;1.10;;
66402;SDS011;53212;52.112;5.144;2023-08-20T11:04:25;5.20;;;1.60;;
66402;SDS011;53212;52.112;5.144;2023-08-20T11:06:54;3.70;;;1.30;;
66402;SDS011;53212;52.112;5.144;2023-08-20T11:09:26;2.30;;;1.20;;
66402;SDS011;53212;52.112;5.144;2023-08-20T11:11:53;4.10;;;1.20;;
66402;SDS011;53212;52.112;5.144;2023-08-20T11:14:20;3.60;;;1.50;;
66402;SDS011;53212;52.112;5.144;2023-08-20T11:16:47;3.10;;;1.20;;
66402;SDS011;53212;52.112;5.144;2023-08-20T11:19:14;3.70;;;1.10;;
66402;SDS011;53212;52.112;5.144;2023-08-20T11:21:44;1.90;;;1.00;;
66402;SDS011;53212;52.112;5.144;2023-08-20T11:24:10;2.90;;;1.00;;
66402;SDS011;53212;52.112;5.144;2023-08-20T11:26:38;2.80;;;1.20;;
66402;SDS011;53212;52.112;5.144;2023-08-20T11:29:09;4.40;;;1.30;;
66402;SDS011;53212;52.112;5.144;2023-08-20T11:31:36;3.50;;;1.40;;
66402;SDS011;53212;52.112;5.144;2023-08-20T11:34:02;3.40;;;0.80;;
66402;SDS011;53212;52.112;5.144;2023-08-20T11:36:29;2.50;;;0.90;;
66402;SDS011;53212;52.112;5.144;2023-08-20T11:38:54;2.40;;;1.10;;
66402;SDS011;53212;52.112;5.144;2023-08-20T11:41:21;2.90;;;0.90;;
66402;SDS011;53212;52.112;5.144;2023-08-20T11:43:47;1.60;;;0.80;;
66402;SDS011;53212;52.112;5.144;2023-08-20T11:46:14;2.10;;;0.90;;
66402;SDS011;53212;52.112;5.144;2023-08-20T11:49:02;1.60;;;0.90;;
66402;SDS011;53212;52.112;5.144;2023-08-20T11:51:40;3.30;;;1.30;;
66402;SDS011;53212;52.112;5.144;2023-08-20T11:54:11;3.20;;;1.00;;
66402;SDS011;53212;52.112;5.144;2023-08-20T11:56:45;2.50;;;0.90;;
66402;SDS011;53212;52.112;5.144;2023-08-20T11:59:16;3.10;;;0.90;;
66402;SDS011;53212;52.112;5.144;2023-08-20T12:01:47;1.70;;;0.90;;
66402;SDS011;53212;52.112;5.144;2023-08-20T12:04:15;2.40;;;0.90;;
66402;SDS011;53212;52.112;5.144;2023-08-20T12:06:41;2.40;;;0.90;;
66402;SDS011;53212;52.112;5.144;2023-08-20T12:09:23;3.20;;;1.10;;
66402;SDS011;53212;52.112;5.144;2023-08-20T12:11:50;2.30;;;0.90;;
66402;SDS011;53212;52.112;5.144;2023-08-20T12:14:19;2.30;;;0.90;;
66402;SDS011;53212;52.112;5.144;2023-08-20T12:16:45;1.70;;;1.10;;
66402;SDS011;53212;52.112;5.144;2023-08-20T12:19:12;2.50;;;0.70;;
66402;SDS011;53212;52.112;5.144;2023-08-20T12:21:37;1.40;;;0.80;;
66402;SDS011;53212;52.112;5.144;2023-08-20T12:24:03;2.80;;;1.20;;
66402;SDS011;53212;52.112;5.144;2023-08-20T12:26:29;1.50;;;1.00;;
66402;SDS011;53212;52.112;5.144;2023-08-20T12:28:55;4.90;;;1.20;;
66402;SDS011;53212;52.112;5.144;2023-08-20T12:31:20;2.50;;;0.90;;
66402;SDS011;53212;52.112;5.144;2023-08-20T12:33:46;2.20;;;1.00;;
66402;SDS011;53212;52.112;5.144;2023-08-20T12:36:11;3.60;;;1.30;;
66402;SDS011;53212;52.112;5.144;2023-08-20T12:38:36;2.90;;;1.20;;
66402;SDS011;53212;52.112;5.144;2023-08-20T12:41:02;2.10;;;1.00;;
66402;SDS011;53212;52.112;5.144;2023-08-20T12:43:29;3.10;;;1.20;;
66402;SDS011;53212;52.112;5.144;2023-08-20T12:45:54;2.20;;;1.00;;
66402;SDS011;53212;52.112;5.144;2023-08-20T12:48:20;3.70;;;1.20;;
66402;SDS011;53212;52.112;5.144;2023-08-20T12:50:45;3.60;;;1.20;;
66402;SDS011;53212;52.112;5.144;2023-08-20T12:53:11;3.50;;;1.20;;
66402;SDS011;53212;52.112;5.144;2023-08-20T12:55:38;2.40;;;1.00;;
66402;SDS011;53212;52.112;5.144;2023-08-20T12:58:03;5.40;;;1.30;;
66402;SDS011;53212;52.112;5.144;2023-08-20T13:00:29;5.00;;;1.40;;
66402;SDS011;53212;52.112;5.144;2023-08-20T13:02:55;2.90;;;1.00;;
66402;SDS011;53212;52.112;5.144;2023-08-20T13:05:25;2.80;;;1.20;;
66402;SDS011;53212;52.112;5.144;2023-08-20T13:07:52;3.80;;;1.30;;
66402;SDS011;53212;52.112;5.144;2023-08-20T13:10:19;3.20;;;1.10;;
66402;SDS011;53212;52.112;5.144;2023-08-20T13:12:48;3.70;;;1.30;;
66402;SDS011;53212;52.112;5.144;2023-08-20T13:15:17;4.30;;;1.70;;
66402;SDS011;53212;52.112;5.144;2023-08-20T13:17:48;4.00;;;1.20;;
66402;SDS011;53212;52.112;5.144;2023-08-20T13:20:15;2.50;;;1.10;;
66402;SDS011;53212;52.112;5.144;2023-08-20T13:22:46;4.30;;;1.30;;
66402;SDS011;53212;52.112;5.144;2023-08-20T13:25:13;4.20;;;1.30;;
66402;SDS011;53212;52.112;5.144;2023-08-20T13:27:40;5.70;;;1.30;;
66402;SDS011;53212;52.112;5.144;2023-08-20T13:30:06;3.90;;;1.60;;
66402;SDS011;53212;52.112;5.144;2023-08-20T13:32:34;4.40;;;1.20;;
66402;SDS011;53212;52.112;5.144;2023-08-20T13:35:01;5.60;;;1.30;;
66402;SDS011;53212;52.112;5.144;2023-08-20T13:37:30;3.80;;;1.20;;
66402;SDS011;53212;52.112;5.144;2023-08-20T13:39:58;6.60;;;1.60;;
66402;SDS011;53212;52.112;5.144;2023-08-20T13:42:24;5.10;;;1.50;;
66402;SDS011;53212;52.112;5.144;2023-08-20T13:44:49;3.10;;;1.20;;
66402;SDS011;53212;52.112;5.144;2023-08-20T13:47:15;5.80;;;1.30;;
66402;SDS011;53212;52.112;5.144;2023-08-20T13:49:40;2.90;;;1.10;;
66402;SDS011;53212;52.112;5.144;2023-08-20T13:52:06;5.10;;;1.10;;
66402;SDS011;53212;52.112;5.144;2023-08-20T13:54:32;3.70;;;1.50;;
66402;SDS011;53212;52.112;5.144;2023-08-20T13:56:58;3.90;;;1.30;;
66402;SDS011;53212;52.112;5.144;2023-08-20T13:59:24;3.80;;;1.30;;
66402;SDS011;53212;52.112;5.144;2023-08-20T14:01:49;4.10;;;1.30;;
66402;SDS011;53212;52.112;5.144;2023-08-20T14:04:15;5.40;;;1.50;;
66402;SDS011;53212;52.112;5.144;2023-08-20T14:06:40;2.80;;;1.50;;
66402;SDS011;53212;52.112;5.144;2023-08-20T14:09:06;5.70;;;1.40;;
66402;SDS011;53212;52.112;5.144;2023-08-20T14:11:32;3.70;;;1.20;;
66402;SDS011;53212;52.112;5.144;2023-08-20T14:13:57;4.90;;;1.70;;
66402;SDS011;53212;52.112;5.144;2023-08-20T14:16:23;4.70;;;1.40;;
66402;SDS011;53212;52.112;5.144;2023-08-20T14:18:48;3.60;;;1.10;;
66402;SDS011;53212;52.112;5.144;2023-08-20T14:21:14;5.40;;;1.70;;
66402;SDS011;53212;52.112;5.144;2023-08-20T14:23:39;3.10;;;1.30;;
66402;SDS011;53212;52.112;5.144;2023-08-20T14:26:06;2.70;;;1.00;;
66402;SDS011;53212;52.112;5.144;2023-08-20T14:28:33;4.10;;;1.20;;
66402;SDS011;53212;52.112;5.144;2023-08-20T14:31:04;4.50;;;1.00;;
66402;SDS011;53212;52.112;5.144;2023-08-20T14:33:31;3.40;;;1.10;;
66402;SDS011;53212;52.112;5.144;2023-08-20T14:35:56;4.30;;;1.10;;
66402;SDS011;53212;52.112;5.144;2023-08-20T14:38:22;4.00;;;1.30;;
66402;SDS011;53212;52.112;5.144;2023-08-20T14:40:48;5.10;;;1.40;;
66402;SDS011;53212;52.112;5.144;2023-08-20T14:43:13;4.90;;;1.70;;
66402;SDS011;53212;52.112;5.144;2023-08-20T14:45:39;3.40;;;1.30;;
66402;SDS011;53212;52.112;5.144;2023-08-20T14:48:04;4.10;;;1.40;;
66402;SDS011;53212;52.112;5.144;2023-08-20T14:50:31;4.80;;;1.50;;
66402;SDS011;53212;52.112;5.144;2023-08-20T14:52:57;3.80;;;1.40;;
66402;SDS011;53212;52.112;5.144;2023-08-20T14:55:23;4.10;;;1.30;;
66402;SDS011;53212;52.112;5.144;2023-08-20T14:57:49;3.20;;;1.20;;